Terminal Aerodrome Forecast
Issued by NWS

Current Version | Previous Version | Graphics & Text | Print | Product List | Glossary On
Versions: 1 2 3 4 5 6 7 8 9 10 11 12 13 14 15 16 17 18 19 20 21 22 23 24
000
FTUS41 KILN 021100
TAFLCK
TAF
KLCK 021127Z 0212/0312 30015KT P6SM OVC015
     FM021300 30007KT P6SM SCT015 BKN200
     FM030000 05003KT P6SM SCT025 BKN150
     FM030300 09004KT P6SM FEW025 OVC100=

USA.gov is the U.S. government's official web portal to all federal, state and local government web resources and services.